This is the latest recevied weather packets stored in our database for station/object DH1FR-13. If no packets are shown the sender has not sent any weather packets the latest 10 day(s).
| Time | Temp. | Humidity | Pressure | Rain* | Wind** | Luminosity | Snow |
|---|---|---|---|---|---|---|---|
| 1777346401 | 5.56° C | 81% | 1023.8 hPa | 0 mm | 0 m/s | - | - |
| 1777345801 | 4.44° C | 84% | 1023.9 hPa | 0 mm | 0 m/s | - | - |
| 1777345201 | 4.44° C | 84% | 1023.9 hPa | 0 mm | 0 m/s | - | - |
| 1777344601 | 5° C | 84% | 1023.6 hPa | 0 mm | 0 m/s | - | - |
| 1777344001 | 5° C | 83% | 1023.7 hPa | 0 mm | 0 m/s | - | - |
| 1777343401 | 5° C | 82% | 1023.7 hPa | 0 mm | 0 m/s | - | - |
| 1777342801 | 5° C | 82% | 1023.7 hPa | 0 mm | 0 m/s | - | - |
| 1777342201 | 5.56° C | 81% | 1023.4 hPa | 0 mm | 0 m/s | - | - |
| 1777341601 | 5.56° C | 81% | 1023.7 hPa | 0 mm | 0 m/s | - | - |
| 1777341001 | 6.11° C | 79% | 1023.7 hPa | 0 mm | 0 m/s | - | - |
| 1777340401 | 6.67° C | 77% | 1023.7 hPa | 0 mm | 0 m/s | - | - |
| 1777339801 | 7.22° C | 74% | 1023.5 hPa | 0 mm | 0 m/s | - | - |
| 1777339201 | 6.67° C | 77% | 1023.4 hPa | 0 mm | 0 m/s | - | - |
| 1777338600 | 7.78° C | 73% | 1023.5 hPa | 0 mm | 0 m/s | - | - |
| 1777338001 | 7.78° C | 73% | 1023.4 hPa | 0 mm | 0 m/s | - | - |
| 1777337401 | 7.78° C | 74% | 1023.4 hPa | 0 mm | 0 m/s | - | - |
| 1777336801 | 7.22° C | 75% | 1023.5 hPa | 0 mm | 0 m/s | - | - |
| 1777336201 | 6.11° C | 81% | 1023.4 hPa | 0 mm | 0 m/s | - | - |
| 1777335601 | 6.11° C | 82% | 1023.4 hPa | 0 mm | 0 m/s | - | - |
| 1777335000 | 6.11° C | 83% | 1023.6 hPa | 0 mm | 0 m/s | - | - |
| 1777334401 | 5.56° C | 83% | 1023.5 hPa | 0 mm | 0 m/s | - | - |
| 1777333801 | 5.56° C | 82% | 1023.3 hPa | 0 mm | 0 m/s | - | - |
| 1777333201 | 6.11° C | 81% | 1023.5 hPa | 0 mm | 0 m/s | - | - |
| 1777332601 | 5.56° C | 82% | 1023.3 hPa | 0 mm | 0 m/s | - | - |
| 1777332001 | 6.11° C | 81% | 1023.6 hPa | 0 mm | 0 m/s | - | - |
* Rain latest hour (hover to see other rain measurements)
** Current wind speed in m/s (hover to see current wind gust speed)